createdAt,value
2023-02-06T00:01:30.117Z,-1.68
2023-02-06T00:05:31.918Z,-1.68
2023-02-06T00:09:42.504Z,-1.71
2023-02-06T00:14:19.304Z,-1.75
2023-02-06T00:17:53.523Z,-1.75
2023-02-06T00:21:57.544Z,-1.78
2023-02-06T00:25:48.760Z,-1.77
2023-02-06T00:29:51.491Z,-1.74
2023-02-06T00:34:19.617Z,-1.73
2023-02-06T00:38:19.779Z,-1.74
2023-02-06T00:42:14.565Z,-1.79
2023-02-06T00:45:48.086Z,-1.87
2023-02-06T00:49:18.667Z,-1.86
2023-02-06T00:52:59.331Z,-1.81
2023-02-06T00:56:44.556Z,-1.77
2023-02-06T01:01:10.911Z,-1.82
2023-02-06T01:05:08.023Z,-1.87
2023-02-06T01:09:05.721Z,-1.96
2023-02-06T01:13:20.151Z,-1.89
2023-02-06T01:24:33.681Z,-1.97
2023-02-06T01:26:25.479Z,-1.99
2023-02-06T01:30:50.382Z,-1.96
2023-02-06T01:34:25.303Z,-1.96
2023-02-06T01:38:29.481Z,-1.98
2023-02-06T01:42:14.269Z,-1.96
2023-02-06T01:46:20.290Z,-1.94
2023-02-06T01:50:30.280Z,-1.90
2023-02-06T01:54:25.219Z,-1.88
2023-02-06T01:57:50.125Z,-1.82
2023-02-06T02:01:42.699Z,-1.85
2023-02-06T02:05:40.449Z,-1.89
2023-02-06T02:09:36.086Z,-1.91
2023-02-06T02:13:27.285Z,-1.79
2023-02-06T02:17:13.833Z,-1.83
2023-02-06T02:21:14.863Z,-1.94
2023-02-06T02:25:21.752Z,-2.06
2023-02-06T02:29:35.135Z,-2.17
2023-02-06T02:33:30.095Z,-2.17
2023-02-06T02:37:36.940Z,-2.21
2023-02-06T02:41:43.455Z,-2.22
2023-02-06T02:45:37.527Z,-2.26
2023-02-06T02:49:42.625Z,-2.22
2023-02-06T02:53:45.350Z,-2.18
2023-02-06T02:57:24.596Z,-2.14
2023-02-06T03:01:10.340Z,-2.04
2023-02-06T03:05:23.364Z,-1.96
2023-02-06T03:09:29.143Z,-1.90
2023-02-06T03:13:23.014Z,-1.90
2023-02-06T03:17:14.137Z,-1.85
2023-02-06T03:21:07.860Z,-1.82
2023-02-06T03:24:55.108Z,-1.87
2023-02-06T03:28:41.702Z,-1.90
2023-02-06T03:32:08.211Z,-1.98
2023-02-06T03:36:18.279Z,-2.00
2023-02-06T03:40:02.282Z,-1.93
2023-02-06T03:44:06.197Z,-1.88
2023-02-06T03:48:03.345Z,-1.83
2023-02-06T03:51:59.133Z,-1.76
2023-02-06T03:55:51.604Z,-1.74
2023-02-06T04:00:04.923Z,-1.74
2023-02-06T04:05:55.576Z,-1.77
2023-02-06T04:09:04.395Z,-1.80
2023-02-06T04:12:50.843Z,-1.80
2023-02-06T04:16:55.831Z,-1.88
2023-02-06T04:20:47.700Z,-1.97
2023-02-06T04:24:41.740Z,-1.96
2023-02-06T04:29:11.072Z,-1.96
2023-02-06T04:33:16.482Z,-2.08
2023-02-06T04:37:03.085Z,-2.09
2023-02-06T04:41:01.768Z,-2.07
2023-02-06T04:45:05.734Z,-2.09
2023-02-06T04:48:58.465Z,-2.06
2023-02-06T04:53:02.498Z,-1.91
2023-02-06T04:57:22.802Z,-1.84
2023-02-06T05:01:24.870Z,-1.83
2023-02-06T05:05:18.840Z,-1.78
2023-02-06T05:09:21.605Z,-1.76
2023-02-06T05:12:58.060Z,-1.75
2023-02-06T05:17:00.899Z,-1.73
2023-02-06T05:21:03.637Z,-1.70
2023-02-06T05:24:57.272Z,-1.71
2023-02-06T05:29:01.232Z,-1.75
2023-02-06T05:32:46.666Z,-1.86
2023-02-06T05:36:50.744Z,-1.90
2023-02-06T05:40:54.612Z,-1.94
2023-02-06T05:44:38.330Z,-1.95
2023-02-06T05:48:37.410Z,-1.95
2023-02-06T05:52:41.480Z,-1.99
2023-02-06T05:56:36.930Z,-2.02
2023-02-06T06:00:31.511Z,-2.04
2023-02-06T06:04:15.087Z,-2.04
2023-02-06T06:08:19.051Z,-2.03
2023-02-06T06:12:23.114Z,-2.07
2023-02-06T06:16:10.294Z,-2.11
2023-02-06T06:20:06.896Z,-2.13
2023-02-06T06:23:42.351Z,-2.11
2023-02-06T06:27:46.437Z,-2.05
2023-02-06T06:31:32.830Z,-2.03
2023-02-06T06:35:25.459Z,-2.00
2023-02-06T06:39:19.153Z,-1.99
2023-02-06T06:43:23.574Z,-2.00
2023-02-06T06:47:27.522Z,-1.95
2023-02-06T06:51:06.385Z,-1.94
2023-02-06T06:54:53.108Z,-1.95
2023-02-06T06:58:57.064Z,-2.01
2023-02-06T07:02:50.641Z,-2.06
2023-02-06T07:07:10.546Z,-2.07
2023-02-06T07:11:04.525Z,-2.09
2023-02-06T07:15:08.122Z,-2.07
2023-02-06T07:19:11.713Z,-2.14
2023-02-06T07:23:16.033Z,-2.15
2023-02-06T07:27:18.574Z,-2.14
2023-02-06T07:31:47.221Z,-2.13
2023-02-06T07:35:40.583Z,-2.09
2023-02-06T07:39:30.683Z,-2.03
2023-02-06T07:43:22.487Z,-1.99
2023-02-06T07:47:15.994Z,-1.94
2023-02-06T07:51:21.654Z,-1.93
2023-02-06T07:55:05.266Z,-1.93
2023-02-06T07:59:16.935Z,-1.92
2023-02-06T08:03:20.547Z,-1.92
2023-02-06T08:07:32.448Z,-1.90
2023-02-06T08:11:36.096Z,-1.92
2023-02-06T08:15:46.024Z,-1.90
2023-02-06T08:19:39.502Z,-1.86
2023-02-06T08:23:48.243Z,-1.82
2023-02-06T08:27:52.089Z,-1.79
2023-02-06T08:31:58.192Z,-1.76
2023-02-06T08:35:54.846Z,-1.71
2023-02-06T08:39:58.558Z,-1.63
2023-02-06T08:44:02.204Z,-1.52
2023-02-06T08:47:55.637Z,-1.37
2023-02-06T08:51:59.760Z,-1.37
2023-02-06T08:55:43.943Z,-1.34
2023-02-06T09:04:30.591Z,-1.19
2023-02-06T09:08:13.218Z,-1.12
2023-02-06T09:16:43.389Z,-1.16
2023-02-06T09:20:53.075Z,-1.12
2023-02-06T09:24:56.655Z,-1.08
2023-02-06T09:28:42.941Z,-1.08
2023-02-06T09:32:06.731Z,-1.15
2023-02-06T09:35:30.274Z,-1.18
2023-02-06T09:38:44.836Z,-1.13
2023-02-06T09:42:48.443Z,-1.02
2023-02-06T09:46:52.225Z,-0.95
2023-02-06T09:50:30.842Z,-0.78
2023-02-06T09:54:27.607Z,-0.66
2023-02-06T09:58:24.822Z,-0.61
2023-02-06T10:02:32.327Z,-0.51
2023-02-06T10:06:21.775Z,-0.44
2023-02-06T10:14:22.376Z,-0.32
2023-02-06T10:18:11.803Z,-0.26
2023-02-06T10:21:51.704Z,-0.19
2023-02-06T10:25:51.809Z,-0.19
2023-02-06T10:29:46.402Z,-0.18
2023-02-06T10:38:32.140Z,-0.08
2023-02-06T10:42:54.331Z,-0.01
2023-02-06T10:47:24.359Z,-0.00
2023-02-06T10:51:36.725Z,0.03
2023-02-06T11:00:32.571Z,0.22
2023-02-06T11:04:24.925Z,0.24
2023-02-06T11:13:29.472Z,0.29
2023-02-06T11:22:57.388Z,0.45
2023-02-06T11:27:13.146Z,0.54
2023-02-06T11:31:35.080Z,0.65
2023-02-06T11:35:42.968Z,0.69
2023-02-06T11:39:36.336Z,0.61
2023-02-06T11:48:28.459Z,0.35
2023-02-06T11:52:46.977Z,0.34
2023-02-06T11:57:03.324Z,0.31
2023-02-06T12:01:08.848Z,0.24
2023-02-06T12:05:12.625Z,0.22
2023-02-06T12:09:24.911Z,0.22
2023-02-06T12:13:19.628Z,0.23
2023-02-06T12:17:23.316Z,0.28
2023-02-06T12:21:31.996Z,0.35
2023-02-06T12:25:14.142Z,0.50
2023-02-06T12:29:23.816Z,0.64
2023-02-06T12:33:21.302Z,0.80
2023-02-06T12:37:24.991Z,0.99
2023-02-06T12:41:46.992Z,1.20
2023-02-06T12:46:05.380Z,1.26
2023-02-06T12:50:12.626Z,1.38
2023-02-06T12:54:02.366Z,1.53
2023-02-06T12:57:52.502Z,1.60
2023-02-06T13:01:49.711Z,1.70
2023-02-06T13:05:23.040Z,1.86
2023-02-06T13:09:16.451Z,2.00
2023-02-06T13:13:13.923Z,2.10
2023-02-06T13:17:13.080Z,2.22
2023-02-06T13:21:09.815Z,2.35
2023-02-06T13:25:06.544Z,2.45
2023-02-06T13:28:42.220Z,2.61
2023-02-06T13:32:29.346Z,2.72
2023-02-06T13:36:30.841Z,2.89
2023-02-06T13:40:32.831Z,2.96
2023-02-06T13:44:05.237Z,2.77
2023-02-06T13:48:05.680Z,2.50
2023-02-06T13:51:50.998Z,2.15
2023-02-06T13:55:56.875Z,1.82
2023-02-06T14:00:00.484Z,1.49
2023-02-06T14:04:10.332Z,1.25
2023-02-06T14:08:18.188Z,1.03
2023-02-06T14:12:52.436Z,0.94
2023-02-06T14:17:06.939Z,0.89
2023-02-06T14:21:01.783Z,0.83
2023-02-06T14:25:04.247Z,0.80
2023-02-06T14:29:25.349Z,0.79
2023-02-06T14:33:59.696Z,0.75
2023-02-06T14:42:56.233Z,0.68
2023-02-06T14:46:41.649Z,0.67
2023-02-06T14:50:45.534Z,0.64
2023-02-06T14:54:41.772Z,0.62
2023-02-06T14:58:36.805Z,0.59
2023-02-06T15:02:48.303Z,0.55
2023-02-06T15:07:10.594Z,0.50
2023-02-06T15:11:14.753Z,0.43
2023-02-06T15:15:22.369Z,0.41
2023-02-06T15:19:26.406Z,0.38
2023-02-06T15:23:56.312Z,0.36
2023-02-06T15:28:09.244Z,0.27
2023-02-06T15:32:18.922Z,0.20
2023-02-06T15:36:21.173Z,0.17
2023-02-06T15:40:04.656Z,0.12
2023-02-06T15:44:10.203Z,0.07
2023-02-06T15:48:03.663Z,0.02
2023-02-06T15:52:19.264Z,-0.00
2023-02-06T15:56:21.802Z,-0.04
2023-02-06T16:00:25.440Z,-0.08
2023-02-06T16:04:31.083Z,-0.13
2023-02-06T16:08:28.159Z,-0.16
2023-02-06T16:12:27.851Z,-0.19
2023-02-06T16:16:49.532Z,-0.22
2023-02-06T16:21:12.007Z,-0.31
2023-02-06T16:29:49.602Z,-0.39
2023-02-06T16:33:51.747Z,-0.42
2023-02-06T16:37:45.459Z,-0.47
2023-02-06T16:41:17.867Z,-0.50
2023-02-06T16:45:13.220Z,-0.50
2023-02-06T16:49:17.965Z,-0.53
2023-02-06T16:53:26.619Z,-0.53
2023-02-06T16:57:30.216Z,-0.53
2023-02-06T17:01:23.804Z,-0.56
2023-02-06T17:05:10.191Z,-0.60
2023-02-06T17:09:14.013Z,-0.64
2023-02-06T17:13:18.182Z,-0.64
2023-02-06T17:17:30.543Z,-0.66
2023-02-06T17:21:28.450Z,-0.71
2023-02-06T17:25:20.932Z,-0.74
2023-02-06T17:29:24.584Z,-0.77
2023-02-06T17:33:28.443Z,-0.80
2023-02-06T17:37:33.280Z,-0.82
2023-02-06T17:41:30.571Z,-0.84
2023-02-06T17:45:34.727Z,-0.86
2023-02-06T17:49:19.018Z,-0.89
2023-02-06T17:53:21.461Z,-0.90
2023-02-06T17:57:15.011Z,-0.89
2023-02-06T18:01:24.660Z,-0.89
2023-02-06T18:04:38.897Z,-0.90
2023-02-06T18:08:42.681Z,-0.90
2023-02-06T18:12:36.069Z,-0.92
2023-02-06T18:16:27.549Z,-0.92
2023-02-06T18:20:21.061Z,-0.96
2023-02-06T18:23:52.338Z,-0.99
2023-02-06T18:27:55.915Z,-1.01
2023-02-06T18:31:57.212Z,-1.03
2023-02-06T18:35:50.713Z,-1.04
2023-02-06T18:39:44.711Z,-1.05
2023-02-06T18:43:28.275Z,-1.06
2023-02-06T18:47:22.922Z,-1.06
2023-02-06T18:51:08.591Z,-1.14
2023-02-06T18:54:55.601Z,-1.14
2023-02-06T18:58:59.532Z,-1.14
2023-02-06T19:02:53.311Z,-1.15
2023-02-06T19:06:59.661Z,-1.16
2023-02-06T19:10:48.257Z,-1.13
2023-02-06T19:14:22.611Z,-1.15
2023-02-06T19:18:06.217Z,-1.15
2023-02-06T19:22:09.842Z,-1.19
2023-02-06T19:26:04.110Z,-1.22
2023-02-06T19:30:07.737Z,-1.22
2023-02-06T19:34:10.299Z,-1.23
2023-02-06T19:38:03.936Z,-1.25
2023-02-06T19:42:13.901Z,-1.26
2023-02-06T19:46:18.816Z,-1.27
2023-02-06T19:50:00.845Z,-1.26
2023-02-06T19:53:55.680Z,-1.26
2023-02-06T19:57:39.538Z,-1.26
2023-02-06T20:01:43.427Z,-1.29
2023-02-06T20:05:29.797Z,-1.31
2023-02-06T20:09:33.427Z,-1.31
2023-02-06T20:13:22.155Z,-1.34
2023-02-06T20:17:21.788Z,-1.35
2023-02-06T20:20:53.209Z,-1.37
2023-02-06T20:24:20.834Z,-1.37
2023-02-06T20:28:24.800Z,-1.39
2023-02-06T20:32:19.490Z,-1.43
2023-02-06T20:35:32.726Z,-1.47
2023-02-06T20:39:32.105Z,-1.48
2023-02-06T20:43:37.789Z,-1.51
2023-02-06T20:47:31.553Z,-1.53
2023-02-06T20:51:41.299Z,-1.59
2023-02-06T20:55:25.945Z,-1.63
2023-02-06T20:59:12.186Z,-1.64
2023-02-06T21:03:15.893Z,-1.59
2023-02-06T21:07:19.458Z,-1.60
2023-02-06T21:11:24.830Z,-1.64
2023-02-06T21:15:28.435Z,-1.65
2023-02-06T21:19:16.962Z,-1.69
2023-02-06T21:23:00.392Z,-1.72
2023-02-06T21:27:03.967Z,-1.73
2023-02-06T21:30:57.479Z,-1.74
2023-02-06T21:35:01.121Z,-1.76
2023-02-06T21:38:50.015Z,-1.79
2023-02-06T21:42:46.616Z,-1.79
2023-02-06T21:46:29.131Z,-1.79
2023-02-06T21:50:05.698Z,-1.80
2023-02-06T21:53:11.777Z,-1.79
2023-02-06T21:56:42.620Z,-1.76
2023-02-06T22:00:17.154Z,-1.78
2023-02-06T22:03:26.070Z,-1.85
2023-02-06T22:07:09.407Z,-1.90
2023-02-06T22:10:18.620Z,-1.95
2023-02-06T22:13:56.590Z,-1.97
2023-02-06T22:17:33.146Z,-1.97
2023-02-06T22:20:49.102Z,-1.97
2023-02-06T22:24:32.681Z,-1.98
2023-02-06T22:28:09.708Z,-1.98
2023-02-06T22:31:38.972Z,-2.03
2023-02-06T22:35:06.021Z,-2.09
2023-02-06T22:39:09.624Z,-2.14
2023-02-06T22:42:57.104Z,-2.19
2023-02-06T22:46:30.607Z,-2.22
2023-02-06T22:50:05.675Z,-2.22
2023-02-06T22:53:50.310Z,-2.15
2023-02-06T22:57:13.825Z,-2.06
2023-02-06T23:01:18.535Z,-2.01
2023-02-06T23:04:44.793Z,-2.02
2023-02-06T23:08:48.332Z,-2.05
2023-02-06T23:12:16.395Z,-2.02
2023-02-06T23:15:59.748Z,-2.09
2023-02-06T23:19:53.179Z,-2.15
2023-02-06T23:23:38.242Z,-2.13
2023-02-06T23:27:11.987Z,-2.13
2023-02-06T23:31:06.519Z,-2.07
2023-02-06T23:34:35.560Z,-1.97
2023-02-06T23:38:38.275Z,-1.97
2023-02-06T23:42:40.334Z,-2.01
2023-02-06T23:46:23.832Z,-2.06
2023-02-06T23:50:18.341Z,-2.12
2023-02-06T23:53:51.588Z,-2.11
2023-02-06T23:57:47.805Z,-2.10
